createdAt,value
2017-07-23T15:58:33.436Z,101021.47
2017-07-23T16:01:01.693Z,101017.70
2017-07-23T16:03:29.504Z,101018.66
2017-07-23T16:05:57.449Z,101022.46
2017-07-23T16:08:25.186Z,101022.39
2017-07-23T16:10:53.158Z,101020.55
2017-07-23T16:13:21.148Z,101021.73
2017-07-23T16:15:48.832Z,101028.43
2017-07-23T16:37:16.244Z,100999.06
2017-07-23T16:39:44.059Z,101007.68
2017-07-23T16:42:11.782Z,101002.87
2017-07-23T16:44:39.632Z,100999.93
2017-07-23T16:47:07.532Z,100992.22
2017-07-23T16:49:35.391Z,100995.48
2017-07-23T16:52:03.627Z,100992.84
2017-07-23T16:54:31.315Z,100992.88
2017-07-23T16:56:59.072Z,100992.39
2017-07-23T16:59:26.828Z,100994.94
2017-07-23T17:01:54.532Z,100992.00
2017-07-23T17:04:22.267Z,101001.27
2017-07-23T17:06:49.949Z,101002.22
2017-07-23T17:09:17.698Z,101000.90
2017-07-23T17:11:45.398Z,101002.23
2017-07-23T17:14:13.173Z,100993.30
2017-07-23T17:16:40.903Z,101010.23
2017-07-23T17:19:08.637Z,100999.53
2017-07-23T17:21:36.417Z,101002.59
2017-07-23T17:24:04.138Z,100998.92
2017-07-23T17:26:37.871Z,100998.06
2017-07-23T17:29:05.619Z,101003.89
2017-07-23T17:31:33.504Z,101007.51
2017-07-23T17:34:01.328Z,101011.45
2017-07-23T17:36:29.186Z,101015.19
2017-07-23T17:38:57.030Z,101018.09
2017-07-23T17:41:24.823Z,101014.23
2017-07-23T17:43:52.735Z,101021.31
2017-07-23T17:46:20.793Z,101024.12
2017-07-23T17:48:48.613Z,101025.64
2017-07-23T17:51:16.286Z,101025.42
2017-07-23T17:53:43.990Z,101020.96
2017-07-23T17:56:11.754Z,101031.20
2017-07-23T17:58:39.599Z,101025.50
2017-07-23T18:01:12.095Z,101019.66
2017-07-23T18:03:39.990Z,101024.05
2017-07-23T18:06:11.876Z,101018.16
2017-07-23T18:08:39.702Z,101019.80
2017-07-23T18:11:08.409Z,101020.95
2017-07-23T18:13:36.118Z,101024.09
2017-07-23T18:16:03.860Z,101017.87
2017-07-23T18:18:31.855Z,101013.45
2017-07-23T18:20:59.748Z,101019.44
2017-07-23T18:23:27.521Z,101017.12
2017-07-23T18:25:55.323Z,101016.28
2017-07-23T18:28:23.022Z,101015.14
2017-07-23T18:30:50.779Z,101010.18
2017-07-23T18:33:18.480Z,101009.29
2017-07-23T18:35:46.185Z,101010.29
2017-07-23T18:38:14.022Z,101014.80
2017-07-23T18:40:41.725Z,101009.77
2017-07-23T18:43:09.497Z,101006.37
2017-07-23T18:45:37.275Z,101017.61
2017-07-23T18:48:05.096Z,101021.57
2017-07-23T18:50:32.772Z,101025.96
2017-07-23T18:53:00.531Z,101025.47
2017-07-23T18:55:28.269Z,101030.29
2017-07-23T18:57:55.943Z,101038.05
2017-07-23T19:00:23.753Z,101036.86
2017-07-23T19:02:51.472Z,101034.52
2017-07-23T19:05:19.232Z,101034.14
2017-07-23T19:07:46.925Z,101039.84
2017-07-23T19:10:14.812Z,101042.20
2017-07-23T19:12:42.581Z,101047.05
2017-07-23T19:15:10.376Z,101043.54
2017-07-23T19:17:38.160Z,101047.70
2017-07-23T19:20:05.952Z,101050.66
2017-07-23T19:22:33.826Z,101047.50
2017-07-23T19:25:01.628Z,101047.59
2017-07-23T19:27:29.436Z,101055.52
2017-07-23T19:29:57.237Z,101054.14
2017-07-23T19:32:25.506Z,101053.56
2017-07-23T19:34:53.382Z,101055.49
2017-07-23T19:37:21.199Z,101057.52
2017-07-23T19:39:49.027Z,101067.25
2017-07-23T19:42:17.093Z,101071.48
2017-07-23T19:44:44.942Z,101079.48
2017-07-23T19:47:13.563Z,101083.44
2017-07-23T19:49:42.151Z,101083.64
2017-07-23T19:52:10.896Z,101086.28
2017-07-23T19:54:38.720Z,101085.00
2017-07-23T19:57:07.411Z,101086.11
2017-07-23T19:59:35.143Z,101090.64
2017-07-23T20:02:02.951Z,101091.34
2017-07-23T20:07:21.840Z,101099.27
2017-07-23T20:09:49.890Z,101093.93
2017-07-23T20:12:17.750Z,101098.27
2017-07-23T20:14:47.162Z,101099.54
2017-07-23T20:17:16.161Z,101106.64
2017-07-23T20:19:44.915Z,101101.70
2017-07-23T20:22:14.246Z,101104.16
2017-07-23T20:24:44.336Z,101100.28
2017-07-23T20:27:23.849Z,101096.82
2017-07-23T20:29:56.515Z,101094.28
2017-07-23T20:32:25.393Z,101094.87
2017-07-23T20:34:56.375Z,101089.17
2017-07-23T20:37:27.369Z,101095.66
2017-07-23T20:39:55.977Z,101086.04
2017-07-23T20:42:26.888Z,101097.14
2017-07-23T20:44:54.656Z,101094.62
2017-07-23T20:47:22.395Z,101097.54
2017-07-23T20:49:50.248Z,101096.95
2017-07-23T20:52:17.935Z,101095.31
2017-07-23T20:54:48.972Z,101098.11
2017-07-23T20:57:16.950Z,101097.59
2017-07-23T20:59:44.791Z,101098.94
2017-07-23T21:02:12.487Z,101102.48
2017-07-23T21:04:41.383Z,101101.77
2017-07-23T21:07:09.258Z,101098.23
2017-07-23T21:09:37.824Z,101091.77
2017-07-23T21:12:05.819Z,101099.98
2017-07-23T21:14:33.786Z,101100.96
2017-07-23T21:17:01.544Z,101104.73
2017-07-23T21:19:29.351Z,101102.70
2017-07-23T21:21:57.191Z,101095.25
2017-07-23T21:24:24.986Z,101105.08
2017-07-23T21:26:52.797Z,101106.58
2017-07-23T21:29:20.468Z,101109.13
2017-07-23T21:31:48.154Z,101107.47
2017-07-23T21:34:15.900Z,101111.94
2017-07-23T21:36:43.638Z,101116.23
2017-07-23T21:39:11.466Z,101109.22
2017-07-23T21:41:39.269Z,101107.56
2017-07-23T21:44:06.994Z,101104.19
2017-07-23T21:46:34.702Z,101108.36
2017-07-23T21:49:02.465Z,101107.82
2017-07-23T21:51:30.166Z,101096.06
2017-07-23T21:53:57.842Z,101090.73
2017-07-23T21:56:25.640Z,101095.84
2017-07-23T21:58:53.390Z,101093.98
2017-07-23T22:01:21.171Z,101100.11
2017-07-23T22:03:48.952Z,101101.95
2017-07-23T22:06:16.773Z,101101.69
2017-07-23T22:08:44.541Z,101099.19
2017-07-23T22:11:12.314Z,101096.05
2017-07-23T22:13:40.109Z,101093.81
2017-07-23T22:16:07.804Z,101092.34
2017-07-23T22:18:35.518Z,101096.23
2017-07-23T22:21:03.252Z,101096.89
2017-07-23T22:23:31.049Z,101100.06
2017-07-23T22:28:40.905Z,101096.41
2017-07-23T22:31:08.690Z,101095.20
2017-07-23T22:33:36.600Z,101093.44
2017-07-23T22:36:04.447Z,101095.64
2017-07-23T22:38:32.234Z,101097.23
2017-07-23T22:41:00.062Z,101094.75
2017-07-23T22:43:27.774Z,101094.13
2017-07-23T22:45:55.581Z,101096.69
2017-07-23T22:48:23.379Z,101090.59
2017-07-23T22:50:51.225Z,101092.00
2017-07-23T22:53:19.028Z,101089.50
2017-07-23T22:55:46.856Z,101093.23
2017-07-23T22:58:14.619Z,101096.84
2017-07-23T23:00:42.362Z,101092.95
2017-07-23T23:03:10.186Z,101089.42
2017-07-23T23:05:37.958Z,101091.23
2017-07-23T23:08:05.764Z,101094.92
2017-07-23T23:10:33.548Z,101096.09
2017-07-23T23:13:01.334Z,101095.53
2017-07-23T23:15:29.198Z,101085.86
2017-07-23T23:17:56.984Z,101074.41
2017-07-23T23:20:24.746Z,101068.07
2017-07-23T23:22:52.515Z,101065.27
2017-07-23T23:25:20.314Z,101070.89
2017-07-23T23:27:48.079Z,101066.94
2017-07-23T23:30:15.865Z,101073.07
2017-07-23T23:32:43.666Z,101066.02
2017-07-23T23:35:11.473Z,101067.50
2017-07-23T23:37:39.232Z,101066.77
2017-07-23T23:40:07.058Z,101067.73
2017-07-23T23:42:34.837Z,101061.99
2017-07-23T23:45:02.611Z,101060.52
2017-07-23T23:47:30.409Z,101053.51
2017-07-23T23:49:58.182Z,101046.45
2017-07-23T23:52:25.955Z,101053.63
2017-07-23T23:54:53.741Z,101054.88
2017-07-23T23:57:21.562Z,101050.17
2017-07-23T23:59:49.323Z,101046.47
